Terminal Aerodrome Forecast
Issued by NWS

Home | Current Version | Previous Version | Text Only | Print | Product List | Glossary On
Versions: 1 2 3 4 5 6 7 8 9 10 11 12 13 14 15 16 17
000
FTUS42 KFFC 010520
TAFRYY
TAF
KRYY 010520Z 0106/0206 00000KT 6SM BR SKC
     FM010800 00000KT 4SM BR SKC
      TEMPO 0109/0112 2SM BR
     FM011400 VRB03KT P6SM SCT030 SCT250
     FM011800 VRB04KT P6SM BKN050
     FM020000 00000KT P6SM SCT250
      AMD NOT SKED TIL 011200=

USA.gov is the U.S. government's official web portal to all federal, state and local government web resources and services.